Terminal Aerodrome Forecast
Issued by NWS

Home | Current Version | Previous Version | Text Only | Print | Product List | Glossary On
Versions: 1 2 3 4 5 6 7 8 9 10 11 12 13 14 15
748
FTUS45 KRIW 281444 AAB
TAFCPR
TAF AMD
KCPR 281444Z 2815/2912 08011KT P6SM FEW020 SCT060
     FM281600 03008KT P6SM SCT060
     FM282100 04009KT P6SM VCTS SCT060CB BKN120
     FM290300 08010KT P6SM VCSH SCT080 BKN140
     FM290700 VRB06KT P6SM FEW120=

USA.gov is the U.S. government's official web portal to all federal, state and local government web resources and services.